createdAt,value
2022-12-04T00:00:00.984Z,60.83
2022-12-04T00:02:48.458Z,58.30
2022-12-04T00:05:35.899Z,68.80
2022-12-04T00:08:23.226Z,66.27
2022-12-04T00:11:13.613Z,62.60
2022-12-04T00:14:06.505Z,59.10
2022-12-04T00:16:54.408Z,68.33
2022-12-04T00:19:41.705Z,55.27
2022-12-04T00:22:28.978Z,53.77
2022-12-04T00:25:16.512Z,64.40
2022-12-04T00:28:05.257Z,63.77
2022-12-04T00:30:53.018Z,64.40
2022-12-04T00:33:40.329Z,52.10
2022-12-04T00:36:29.458Z,72.67
2022-12-04T00:39:17.009Z,66.17
2022-12-04T00:42:04.805Z,67.60
2022-12-04T00:44:53.199Z,64.13
2022-12-04T00:47:40.631Z,49.47
2022-12-04T00:50:28.025Z,59.53
2022-12-04T00:53:15.567Z,59.50
2022-12-04T00:56:06.004Z,65.50
2022-12-04T00:58:54.265Z,70.60
2022-12-04T01:01:43.147Z,68.43
2022-12-04T01:04:30.484Z,65.00
2022-12-04T01:07:17.614Z,55.60
2022-12-04T01:10:05.912Z,73.03
2022-12-04T01:12:54.000Z,71.63
2022-12-04T01:15:43.629Z,68.53
2022-12-04T01:18:32.330Z,67.83
2022-12-04T01:21:20.359Z,61.97
2022-12-04T01:24:08.771Z,69.33
2022-12-04T01:26:55.982Z,73.20
2022-12-04T01:29:43.433Z,70.43
2022-12-04T01:32:30.925Z,63.60
2022-12-04T01:35:19.630Z,76.33
2022-12-04T01:38:07.037Z,71.03
2022-12-04T01:40:55.226Z,72.60
2022-12-04T01:43:42.997Z,79.97
2022-12-04T01:46:30.409Z,73.97
2022-12-04T01:49:22.620Z,63.17
2022-12-04T01:52:16.938Z,69.37
2022-12-04T01:55:04.229Z,72.53
2022-12-04T01:57:51.717Z,66.67
2022-12-04T02:00:39.104Z,74.83
2022-12-04T02:03:26.564Z,80.87
2022-12-04T02:06:14.206Z,71.17
2022-12-04T02:09:03.090Z,73.03
2022-12-04T02:11:57.097Z,68.43
2022-12-04T02:14:53.285Z,67.90
2022-12-04T02:17:44.497Z,70.80
2022-12-04T02:20:37.937Z,67.83
2022-12-04T02:23:57.705Z,76.40
2022-12-04T02:26:51.113Z,69.00
2022-12-04T02:29:43.632Z,61.97
2022-12-04T02:32:38.113Z,58.77
2022-12-04T02:35:30.022Z,66.33
2022-12-04T02:38:24.071Z,68.33
2022-12-04T02:41:16.904Z,76.30
2022-12-04T02:44:11.786Z,71.10
2022-12-04T02:47:04.733Z,72.43
2022-12-04T02:49:56.304Z,76.97
2022-12-04T02:52:48.928Z,77.47
2022-12-04T02:55:41.595Z,82.03
2022-12-04T02:58:32.904Z,76.43
2022-12-04T03:01:25.327Z,72.07
2022-12-04T03:04:17.030Z,74.50
2022-12-04T03:07:08.160Z,71.00
2022-12-04T03:10:00.823Z,74.60
2022-12-04T03:12:54.308Z,73.53
2022-12-04T03:15:46.293Z,66.57
2022-12-04T03:18:38.324Z,78.30
2022-12-04T03:21:30.772Z,78.50
2022-12-04T03:24:24.881Z,36.70
2022-12-04T03:27:15.489Z,53.90
2022-12-04T03:30:06.124Z,64.77
2022-12-04T03:32:58.362Z,73.63
2022-12-04T03:35:51.487Z,75.17
2022-12-04T03:38:45.024Z,71.57
2022-12-04T03:41:38.760Z,76.03
2022-12-04T03:44:29.165Z,72.53
2022-12-04T03:47:20.328Z,73.13
2022-12-04T03:50:17.641Z,76.97
2022-12-04T03:53:13.157Z,71.77
2022-12-04T03:56:06.045Z,82.23
2022-12-04T03:58:59.786Z,74.73
2022-12-04T04:01:50.397Z,75.63
2022-12-04T04:04:40.497Z,71.10
2022-12-04T04:07:35.644Z,79.10
2022-12-04T04:10:27.488Z,74.37
2022-12-04T04:13:36.429Z,73.90
2022-12-04T04:16:44.234Z,73.43
2022-12-04T04:19:53.152Z,63.20
2022-12-04T04:22:58.684Z,67.87
2022-12-04T04:25:48.134Z,80.57
2022-12-04T04:28:39.008Z,75.20
2022-12-04T04:31:31.565Z,73.20
2022-12-04T04:34:23.734Z,64.27
2022-12-04T04:37:20.752Z,82.43
2022-12-04T04:40:15.062Z,74.03
2022-12-04T04:43:09.398Z,73.87
2022-12-04T04:46:04.706Z,70.37
2022-12-04T04:48:56.231Z,80.33
2022-12-04T04:51:44.374Z,64.13
2022-12-04T04:54:34.845Z,67.20
2022-12-04T04:57:30.824Z,65.77
2022-12-04T05:00:21.002Z,63.03
2022-12-04T05:03:10.795Z,73.40
2022-12-04T05:05:58.481Z,71.57
2022-12-04T05:08:47.127Z,72.13
2022-12-04T05:11:34.309Z,64.83
2022-12-04T05:14:21.673Z,75.43
2022-12-04T05:17:12.584Z,72.03
2022-12-04T05:20:01.254Z,73.43
2022-12-04T05:22:48.334Z,68.23
2022-12-04T05:25:35.677Z,75.80
2022-12-04T05:28:23.057Z,71.93
2022-12-04T05:31:10.551Z,73.80
2022-12-04T05:33:58.224Z,66.10
2022-12-04T05:36:46.740Z,73.57
2022-12-04T05:39:35.790Z,58.10
2022-12-04T05:42:23.494Z,66.40
2022-12-04T05:45:11.360Z,72.37
2022-12-04T05:47:58.846Z,57.73
2022-12-04T05:50:46.185Z,70.27
2022-12-04T05:53:34.918Z,70.93
2022-12-04T05:56:22.738Z,69.03
2022-12-04T05:59:10.176Z,67.70
2022-12-04T06:01:57.661Z,67.90
2022-12-04T06:04:45.174Z,62.27
2022-12-04T06:07:32.777Z,63.03
2022-12-04T06:10:21.522Z,66.43
2022-12-04T06:13:08.836Z,69.03
2022-12-04T06:15:56.161Z,42.63
2022-12-04T06:18:43.835Z,68.23
2022-12-04T06:21:34.212Z,61.50
2022-12-04T06:24:23.904Z,62.33
2022-12-04T06:27:27.255Z,68.00
2022-12-04T06:30:15.567Z,54.10
2022-12-04T06:33:02.923Z,71.90
2022-12-04T06:35:59.249Z,80.50
2022-12-04T06:38:47.094Z,62.60
2022-12-04T06:41:34.655Z,62.97
2022-12-04T06:44:23.054Z,61.37
2022-12-04T06:47:10.637Z,75.10
2022-12-04T06:49:58.013Z,73.03
2022-12-04T06:52:45.444Z,63.30
2022-12-04T06:55:32.872Z,78.43
2022-12-04T06:58:20.417Z,69.37
2022-12-04T07:01:10.389Z,62.97
2022-12-04T07:03:57.853Z,69.03
2022-12-04T07:06:45.453Z,68.93
2022-12-04T07:09:32.918Z,69.00
2022-12-04T07:12:20.253Z,68.13
2022-12-04T07:15:08.599Z,67.60
2022-12-04T07:17:57.352Z,68.43
2022-12-04T07:20:44.788Z,60.43
2022-12-04T07:23:32.208Z,60.47
2022-12-04T07:26:19.894Z,77.00
2022-12-04T07:29:07.153Z,74.20
2022-12-04T07:31:54.473Z,68.23
2022-12-04T07:34:43.072Z,67.97
2022-12-04T07:37:30.222Z,53.93
2022-12-04T07:40:17.855Z,70.07
2022-12-04T07:43:04.856Z,64.83
2022-12-04T07:45:52.746Z,73.70
2022-12-04T07:48:40.291Z,72.17
2022-12-04T07:51:30.684Z,68.30
2022-12-04T07:54:18.223Z,66.10
2022-12-04T07:57:05.680Z,70.00
2022-12-04T07:59:53.255Z,70.93
2022-12-04T08:02:40.539Z,69.73
2022-12-04T08:05:27.962Z,67.30
2022-12-04T08:08:16.951Z,71.00
2022-12-04T08:11:07.418Z,69.73
2022-12-04T08:13:56.370Z,62.53
2022-12-04T08:16:48.224Z,74.47
2022-12-04T08:19:38.329Z,66.93
2022-12-04T08:22:25.909Z,76.00
2022-12-04T08:25:14.800Z,70.73
2022-12-04T08:28:02.197Z,62.57
2022-12-04T08:30:49.754Z,70.97
2022-12-04T08:33:37.321Z,72.03
2022-12-04T08:36:25.116Z,61.17
2022-12-04T08:39:13.118Z,59.97
2022-12-04T08:42:01.932Z,71.03
2022-12-04T08:44:49.538Z,73.63
2022-12-04T08:47:37.034Z,63.33
2022-12-04T08:50:24.428Z,66.00
2022-12-04T08:53:11.878Z,67.80
2022-12-04T08:56:01.376Z,71.60
2022-12-04T08:58:50.060Z,57.57
2022-12-04T09:01:37.203Z,64.17
2022-12-04T09:04:24.712Z,61.03
2022-12-04T09:07:12.147Z,58.67
2022-12-04T09:09:59.646Z,62.27
2022-12-04T09:12:46.866Z,68.03
2022-12-04T09:15:36.189Z,55.13
2022-12-04T09:18:23.470Z,62.87
2022-12-04T09:21:12.599Z,58.77
2022-12-04T09:24:00.957Z,62.30
2022-12-04T09:26:48.086Z,64.07
2022-12-04T09:29:35.441Z,59.53
2022-12-04T09:32:23.815Z,60.50
2022-12-04T09:35:11.300Z,60.57
2022-12-04T09:37:59.229Z,60.47
2022-12-04T09:40:53.441Z,55.27
2022-12-04T09:43:45.967Z,61.47
2022-12-04T09:46:37.643Z,61.57
2022-12-04T09:49:30.477Z,70.03
2022-12-04T09:52:30.894Z,60.13
2022-12-04T09:55:23.678Z,74.10
2022-12-04T09:58:16.056Z,64.33
2022-12-04T10:01:04.925Z,67.70
2022-12-04T10:03:53.631Z,67.50
2022-12-04T10:06:48.704Z,55.73
2022-12-04T10:09:42.977Z,56.47
2022-12-04T10:12:37.923Z,59.47
2022-12-04T10:15:33.692Z,62.27
2022-12-04T10:18:33.204Z,58.23
2022-12-04T10:21:33.616Z,58.27
2022-12-04T10:24:32.350Z,56.23
2022-12-04T10:27:23.248Z,68.97
2022-12-04T10:30:20.353Z,56.47
2022-12-04T10:33:17.732Z,63.20
2022-12-04T10:36:06.218Z,52.80
2022-12-04T10:38:57.403Z,52.07
2022-12-04T10:41:52.001Z,59.47
2022-12-04T10:44:40.239Z,54.30
2022-12-04T10:47:28.838Z,50.33
2022-12-04T10:50:19.342Z,63.37
2022-12-04T10:53:10.806Z,55.43
2022-12-04T10:56:10.767Z,48.57
2022-12-04T10:59:01.940Z,56.47
2022-12-04T11:01:50.347Z,47.83
2022-12-04T11:04:37.984Z,55.70
2022-12-04T11:07:27.819Z,53.80
2022-12-04T11:10:22.564Z,49.63
2022-12-04T11:13:17.568Z,55.77
2022-12-04T11:16:07.476Z,54.77
2022-12-04T11:18:54.537Z,57.40
2022-12-04T11:21:42.155Z,46.83
2022-12-04T11:24:34.114Z,56.23
2022-12-04T11:27:27.137Z,47.67
2022-12-04T11:30:17.292Z,49.80
2022-12-04T11:33:09.237Z,55.03
2022-12-04T11:36:00.169Z,47.07
2022-12-04T11:38:48.021Z,54.37
2022-12-04T11:41:35.735Z,39.37
2022-12-04T11:44:26.941Z,44.10
2022-12-04T11:47:19.536Z,43.03
2022-12-04T11:50:17.628Z,43.47
2022-12-04T11:53:13.110Z,39.23
2022-12-04T11:56:21.878Z,44.93
2022-12-04T11:59:31.283Z,49.07
2022-12-04T12:02:39.738Z,50.47
2022-12-04T12:06:02.137Z,44.60
2022-12-04T12:09:13.668Z,42.47
2022-12-04T12:12:04.893Z,43.50
2022-12-04T12:15:04.250Z,45.83
2022-12-04T12:18:06.951Z,48.13
2022-12-04T12:21:03.285Z,48.77
2022-12-04T12:24:11.086Z,47.67
2022-12-04T12:27:10.296Z,47.37
2022-12-04T12:30:03.214Z,46.10
2022-12-04T12:33:11.043Z,45.97
2022-12-04T12:36:07.040Z,50.00
2022-12-04T12:38:57.280Z,49.87
2022-12-04T12:41:47.906Z,47.13
2022-12-04T12:44:40.715Z,52.07
2022-12-04T12:47:32.651Z,48.20
2022-12-04T12:50:24.074Z,50.30
2022-12-04T12:53:19.194Z,50.30
2022-12-04T12:56:10.727Z,44.47
2022-12-04T12:59:04.237Z,53.00
2022-12-04T13:02:00.589Z,46.60
2022-12-04T13:04:51.502Z,48.63
2022-12-04T13:07:46.602Z,41.53
2022-12-04T13:10:41.361Z,45.17
2022-12-04T13:13:31.641Z,50.77
2022-12-04T13:16:22.923Z,50.37
2022-12-04T13:19:17.434Z,54.77
2022-12-04T13:22:15.354Z,50.40
2022-12-04T13:25:22.401Z,51.20
2022-12-04T13:28:24.811Z,59.80
2022-12-04T13:31:24.760Z,55.43
2022-12-04T13:34:48.471Z,55.97
2022-12-04T13:37:50.513Z,48.57
2022-12-04T13:40:40.887Z,50.93
2022-12-04T13:43:37.891Z,51.83
2022-12-04T13:46:30.719Z,49.33
2022-12-04T13:49:27.401Z,52.03
2022-12-04T13:52:25.235Z,52.10
2022-12-04T13:55:28.168Z,52.60
2022-12-04T13:58:28.461Z,55.03
2022-12-04T14:01:26.841Z,61.50
2022-12-04T14:04:24.997Z,65.47
2022-12-04T14:07:27.327Z,56.07
2022-12-04T14:10:28.906Z,57.13
2022-12-04T14:13:20.752Z,54.53
2022-12-04T14:16:18.331Z,63.70
2022-12-04T14:19:08.099Z,49.53
2022-12-04T14:21:55.441Z,55.80
2022-12-04T14:24:43.133Z,60.57
2022-12-04T14:27:43.100Z,66.00
2022-12-04T14:30:37.415Z,64.23
2022-12-04T14:33:30.260Z,63.47
2022-12-04T14:36:24.614Z,58.77
2022-12-04T14:39:18.054Z,63.87
2022-12-04T14:42:08.464Z,57.47
2022-12-04T14:44:58.446Z,60.13
2022-12-04T14:47:57.768Z,49.27
2022-12-04T14:50:52.904Z,75.00
2022-12-04T14:53:48.100Z,68.67
2022-12-04T14:56:50.566Z,70.13
2022-12-04T14:59:44.448Z,75.37
2022-12-04T15:02:36.679Z,71.70
2022-12-04T15:05:27.092Z,81.03
2022-12-04T15:08:15.347Z,81.77
2022-12-04T15:11:25.308Z,72.90
2022-12-04T15:14:14.612Z,77.73
2022-12-04T15:17:03.861Z,61.03
2022-12-04T15:19:51.365Z,70.40
2022-12-04T15:22:38.898Z,82.07
2022-12-04T15:25:28.783Z,66.60
2022-12-04T15:28:21.741Z,82.53
2022-12-04T15:31:21.941Z,81.70
2022-12-04T15:34:14.170Z,75.17
2022-12-04T15:37:07.725Z,68.83
2022-12-04T15:39:56.032Z,72.93
2022-12-04T15:42:43.450Z,79.20
2022-12-04T15:45:34.335Z,84.30
2022-12-04T15:48:26.140Z,83.47
2022-12-04T15:51:14.625Z,60.40
2022-12-04T15:54:03.638Z,82.23
2022-12-04T15:57:01.877Z,88.80
2022-12-04T15:59:51.738Z,78.10
2022-12-04T16:02:43.897Z,81.50
2022-12-04T16:05:35.471Z,80.27
2022-12-04T16:08:25.909Z,89.40
2022-12-04T16:11:34.220Z,89.40
2022-12-04T16:14:21.552Z,96.97
2022-12-04T16:17:11.650Z,91.17
2022-12-04T16:20:00.599Z,110.87
2022-12-04T16:22:50.951Z,105.40
2022-12-04T16:25:38.109Z,89.57
2022-12-04T16:28:25.773Z,89.97
2022-12-04T16:31:14.301Z,101.07
2022-12-04T16:34:01.721Z,99.27
2022-12-04T16:36:50.212Z,92.77
2022-12-04T16:39:41.324Z,92.27
2022-12-04T16:42:30.292Z,100.80
2022-12-04T16:45:24.223Z,93.60
2022-12-04T16:48:11.400Z,90.90
2022-12-04T16:50:58.794Z,84.83
2022-12-04T16:53:47.677Z,97.60
2022-12-04T16:56:35.308Z,96.97
2022-12-04T16:59:22.737Z,93.40
2022-12-04T17:02:18.297Z,98.07
2022-12-04T17:05:06.361Z,106.17
2022-12-04T17:07:54.007Z,95.43
2022-12-04T17:10:42.479Z,107.60
2022-12-04T17:13:29.700Z,107.33
2022-12-04T17:16:19.785Z,103.80
2022-12-04T17:19:07.635Z,102.83
2022-12-04T17:21:54.730Z,97.73
2022-12-04T17:24:49.081Z,103.53
2022-12-04T17:27:41.680Z,107.53
2022-12-04T17:30:32.821Z,108.10
2022-12-04T17:33:23.023Z,102.73
2022-12-04T17:36:11.307Z,115.03
2022-12-04T17:39:01.435Z,103.20
2022-12-04T17:41:48.711Z,103.10
2022-12-04T17:44:37.492Z,109.87
2022-12-04T17:47:24.717Z,75.50
2022-12-04T17:50:12.465Z,88.27
2022-12-04T17:52:59.673Z,101.60
2022-12-04T17:55:47.017Z,104.27
2022-12-04T17:58:35.706Z,109.83
2022-12-04T18:01:26.117Z,105.57
2022-12-04T18:04:13.615Z,98.33
2022-12-04T18:07:00.820Z,104.10
2022-12-04T18:09:48.232Z,109.87
2022-12-04T18:12:35.746Z,101.93
2022-12-04T18:15:23.178Z,95.87
2022-12-04T18:18:11.897Z,99.63
2022-12-04T18:21:03.043Z,113.67
2022-12-04T18:23:50.757Z,96.30
2022-12-04T18:26:39.905Z,94.13
2022-12-04T18:29:27.829Z,65.40
2022-12-04T18:32:15.167Z,98.87
2022-12-04T18:35:03.916Z,102.40
2022-12-04T18:37:51.125Z,97.63
2022-12-04T18:40:38.709Z,87.97
2022-12-04T18:43:26.050Z,94.60
2022-12-04T18:46:15.100Z,83.80
2022-12-04T18:49:03.299Z,92.70
2022-12-04T18:51:52.215Z,92.33
2022-12-04T18:54:39.268Z,88.00
2022-12-04T18:57:26.749Z,86.67
2022-12-04T19:00:14.928Z,72.77
2022-12-04T19:03:04.447Z,87.40
2022-12-04T19:05:54.639Z,82.50
2022-12-04T19:08:43.840Z,87.73
2022-12-04T19:11:30.791Z,89.60
2022-12-04T19:14:23.510Z,84.63
2022-12-04T19:17:11.577Z,90.00
2022-12-04T19:19:59.451Z,90.03
2022-12-04T19:22:46.654Z,93.37
2022-12-04T19:25:35.458Z,72.60
2022-12-04T19:28:22.908Z,74.90
2022-12-04T19:31:16.111Z,83.93
2022-12-04T19:34:04.156Z,78.37
2022-12-04T19:36:51.240Z,74.17
2022-12-04T19:39:38.857Z,78.17
2022-12-04T19:42:30.339Z,87.07
2022-12-04T19:45:17.949Z,90.90
2022-12-04T19:48:05.942Z,85.03
2022-12-04T19:50:53.262Z,80.80
2022-12-04T19:53:41.428Z,80.57
2022-12-04T19:56:30.115Z,80.47
2022-12-04T19:59:20.158Z,76.13
2022-12-04T20:02:07.874Z,84.80
2022-12-04T20:04:54.849Z,84.67
2022-12-04T20:07:42.365Z,75.00
2022-12-04T20:10:29.726Z,83.93
2022-12-04T20:13:17.048Z,76.07
2022-12-04T20:16:07.821Z,85.20
2022-12-04T20:18:55.153Z,79.23
2022-12-04T20:21:43.087Z,74.77
2022-12-04T20:24:30.258Z,76.27
2022-12-04T20:27:17.669Z,73.77
2022-12-04T20:30:05.862Z,77.97
2022-12-04T20:32:54.839Z,81.40
2022-12-04T20:35:41.886Z,75.13
2022-12-04T20:38:29.297Z,75.83
2022-12-04T20:41:18.609Z,79.07
2022-12-04T20:44:07.987Z,71.27
2022-12-04T20:46:55.100Z,70.37
2022-12-04T20:49:43.931Z,72.27
2022-12-04T20:52:31.293Z,77.33
2022-12-04T20:55:18.825Z,87.13
2022-12-04T20:58:06.085Z,89.03
2022-12-04T21:00:53.397Z,74.27
2022-12-04T21:03:41.791Z,80.53
2022-12-04T21:06:34.887Z,68.03
2022-12-04T21:09:24.905Z,75.40
2022-12-04T21:12:26.504Z,75.87
2022-12-04T21:15:27.685Z,83.93
2022-12-04T21:18:14.928Z,75.30
2022-12-04T21:21:02.912Z,81.53
2022-12-04T21:23:52.034Z,74.20
2022-12-04T21:26:39.387Z,73.97
2022-12-04T21:29:26.572Z,70.50
2022-12-04T21:32:13.833Z,70.43
2022-12-04T21:35:02.508Z,85.77
2022-12-04T21:37:50.103Z,79.43
2022-12-04T21:40:42.356Z,90.43
2022-12-04T21:43:33.289Z,72.03
2022-12-04T21:46:20.504Z,88.23
2022-12-04T21:49:08.473Z,90.47
2022-12-04T21:51:58.174Z,75.90
2022-12-04T21:54:45.963Z,80.10
2022-12-04T21:57:34.777Z,67.93
2022-12-04T22:00:22.502Z,79.13
2022-12-04T22:03:09.646Z,78.40
2022-12-04T22:06:00.968Z,76.97
2022-12-04T22:08:48.820Z,83.57
2022-12-04T22:11:36.556Z,93.43
2022-12-04T22:14:25.360Z,83.17
2022-12-04T22:17:12.353Z,75.47
2022-12-04T22:19:59.887Z,87.53
2022-12-04T22:22:47.285Z,80.73
2022-12-04T22:25:34.930Z,79.13
2022-12-04T22:28:22.085Z,81.13
2022-12-04T22:31:12.467Z,82.20
2022-12-04T22:34:01.585Z,74.90
2022-12-04T22:36:50.832Z,96.20
2022-12-04T22:39:37.907Z,72.73
2022-12-04T22:42:25.366Z,81.50
2022-12-04T22:45:13.300Z,90.07
2022-12-04T22:48:01.875Z,76.60
2022-12-04T22:50:57.179Z,85.73
2022-12-04T22:53:47.141Z,73.97
2022-12-04T22:56:34.664Z,94.97
2022-12-04T22:59:22.102Z,81.87
2022-12-04T23:02:09.556Z,88.67
2022-12-04T23:04:58.434Z,80.90
2022-12-04T23:07:45.817Z,86.27
2022-12-04T23:10:33.195Z,76.53
2022-12-04T23:13:20.688Z,84.93
2022-12-04T23:16:10.095Z,75.03
2022-12-04T23:18:59.072Z,84.00
2022-12-04T23:21:54.990Z,85.30
2022-12-04T23:24:44.089Z,79.67
2022-12-04T23:27:32.155Z,88.63
2022-12-04T23:30:26.141Z,102.57
2022-12-04T23:33:14.595Z,84.03
2022-12-04T23:36:03.838Z,87.77
2022-12-04T23:38:52.637Z,73.30
2022-12-04T23:41:40.202Z,96.93
2022-12-04T23:44:27.288Z,81.10
2022-12-04T23:47:14.831Z,82.93
2022-12-04T23:50:02.447Z,83.03
2022-12-04T23:52:50.525Z,83.07
2022-12-04T23:55:39.288Z,84.63
2022-12-04T23:58:26.599Z,88.27
